Time;durP1;ratioP1;P1;durP2;ratioP2;P2;SDS_P1;SDS_P2;PMS_P1;PMS_P2;Temp;Humidity;BMP_temperature;BMP_pressure;BME280_temperature;BME280_humidity;BME280_pressure;Samples;Min_cycle;Max_cycle;Signal;HPM_P1;HPM_P2
2022/10/18 00:00:57;;;;;;;4.22;2.10;;;21.80;56.20;;;;;;5086200;28;45252;-70
2022/10/18 00:03:23;;;;;;;4.60;2.50;;;21.80;56.30;;;;;;5086489;28;45296;-70
2022/10/18 00:05:51;;;;;;;4.15;2.42;;;21.80;56.30;;;;;;5086322;28;45411;-70
2022/10/18 00:08:17;;;;;;;4.20;2.50;;;21.80;56.30;;;;;;5086075;28;45245;-70
2022/10/18 00:10:44;;;;;;;4.75;2.58;;;21.80;56.30;;;;;;5086180;28;45268;-70
2022/10/18 00:13:13;;;;;;;3.35;2.35;;;21.80;56.30;;;;;;5086244;28;45409;-70
2022/10/18 00:15:39;;;;;;;6.20;2.53;;;21.80;56.40;;;;;;5085626;28;45408;-70
2022/10/18 00:18:06;;;;;;;3.25;2.25;;;21.80;56.50;;;;;;5085851;28;46693;-70
2022/10/18 00:20:33;;;;;;;2.95;2.00;;;21.80;56.50;;;;;;5085925;28;45266;-70
2022/10/18 00:23:00;;;;;;;3.38;2.30;;;21.80;56.50;;;;;;5086071;28;45322;-71
2022/10/18 00:25:27;;;;;;;2.05;1.85;;;21.80;56.50;;;;;;5086312;28;45341;-71
2022/10/18 00:27:53;;;;;;;3.28;2.17;;;21.80;56.50;;;;;;5085728;28;46335;-70
2022/10/18 00:30:22;;;;;;;5.75;2.45;;;21.80;56.60;;;;;;5085353;28;45231;-71
2022/10/18 00:32:49;;;;;;;3.17;2.17;;;21.80;56.60;;;;;;5085298;28;45311;-70
2022/10/18 00:35:15;;;;;;;4.20;2.15;;;21.70;56.50;;;;;;5086228;28;45380;-71
2022/10/18 00:37:42;;;;;;;3.00;2.40;;;21.70;56.50;;;;;;5085605;28;46556;-70
2022/10/18 00:40:10;;;;;;;4.10;2.13;;;21.70;56.60;;;;;;5085586;28;45321;-70
2022/10/18 00:42:37;;;;;;;3.65;2.10;;;21.70;56.60;;;;;;5085529;28;45250;-70
2022/10/18 00:45:17;;;;;;;2.30;1.95;;;21.70;56.70;;;;;;5086010;28;45190;-70
2022/10/18 00:47:47;;;;;;;2.28;1.88;;;21.70;56.60;;;;;;5085602;28;46790;-70
2022/10/18 00:50:14;;;;;;;2.22;1.75;;;21.70;56.60;;;;;;5085759;28;45258;-70
2022/10/18 00:52:42;;;;;;;3.63;2.08;;;21.70;56.70;;;;;;5085755;28;45323;-71
2022/10/18 00:55:09;;;;;;;3.38;2.10;;;21.70;56.80;;;;;;5085787;28;45408;-70
2022/10/18 00:57:36;;;;;;;3.60;2.15;;;21.70;57.30;;;;;;5085341;28;45466;-70
2022/10/18 01:00:06;;;;;;;2.50;2.05;;;21.70;56.80;;;;;;5085544;28;45256;-71
2022/10/18 01:02:33;;;;;;;4.10;2.33;;;21.70;56.80;;;;;;5085653;28;45229;-70
2022/10/18 01:05:01;;;;;;;3.17;1.90;;;21.60;56.80;;;;;;5085821;28;45356;-70
2022/10/18 01:07:34;;;;;;;2.08;1.80;;;21.60;56.80;;;;;;5085299;28;46618;-70
2022/10/18 01:10:06;;;;;;;2.83;1.92;;;21.60;56.80;;;;;;5085376;28;45249;-70
2022/10/18 01:12:39;;;;;;;3.53;2.05;;;21.60;56.80;;;;;;5085602;28;45241;-71
2022/10/18 01:15:08;;;;;;;1.85;1.50;;;21.60;56.90;;;;;;5085829;28;45293;-70
2022/10/18 01:17:38;;;;;;;3.00;2.08;;;21.60;56.90;;;;;;5085197;28;45304;-70
2022/10/18 01:20:31;;;;;;;3.25;1.90;;;21.60;56.80;;;;;;5085198;28;45206;-70
2022/10/18 01:23:00;;;;;;;3.58;2.00;;;21.60;56.90;;;;;;5085382;28;45260;-70
2022/10/18 01:25:34;;;;;;;1.85;1.63;;;21.60;56.90;;;;;;5085374;28;45287;-70
2022/10/18 01:28:07;;;;;;;2.75;2.00;;;21.60;56.90;;;;;;5085940;27;45462;-70
2022/10/18 01:30:39;;;;;;;2.75;2.00;;;21.60;57.00;;;;;;5088761;28;45301;-70
2022/10/18 01:33:21;;;;;;;2.97;1.60;;;21.50;57.00;;;;;;5088819;28;45328;-70
2022/10/18 01:35:50;;;;;;;2.47;1.88;;;21.50;57.00;;;;;;5088686;28;45288;-70
2022/10/18 01:38:17;;;;;;;2.38;1.70;;;21.50;57.00;;;;;;5088320;28;46350;-71
2022/10/18 01:40:45;;;;;;;2.80;1.90;;;21.50;57.00;;;;;;5088577;28;45205;-70
2022/10/18 01:43:12;;;;;;;1.95;1.55;;;21.50;57.00;;;;;;5088454;28;45322;-70
2022/10/18 01:45:40;;;;;;;1.75;1.60;;;21.50;57.60;;;;;;5088337;28;45408;-69
2022/10/18 01:48:07;;;;;;;2.83;2.00;;;21.50;57.10;;;;;;5087580;28;46312;-70
2022/10/18 01:50:34;;;;;;;2.95;1.98;;;21.50;57.00;;;;;;5088170;28;45191;-70
2022/10/18 01:53:02;;;;;;;2.63;1.60;;;21.50;57.10;;;;;;5088240;28;45307;-70
2022/10/18 01:55:31;;;;;;;2.40;1.70;;;21.50;57.10;;;;;;5088453;28;45332;-69
2022/10/18 01:58:03;;;;;;;2.33;1.90;;;21.50;57.10;;;;;;5087840;28;46662;-69
2022/10/18 02:00:31;;;;;;;2.20;1.70;;;21.50;57.10;;;;;;5088051;28;45556;-71
2022/10/18 02:03:02;;;;;;;3.22;1.70;;;21.50;57.10;;;;;;5088235;28;45175;-69
2022/10/18 02:05:30;;;;;;;2.63;1.80;;;21.40;57.70;;;;;;5088397;28;45301;-69
2022/10/18 02:08:00;;;;;;;1.83;1.73;;;21.40;57.10;;;;;;5087965;28;46646;-70
2022/10/18 02:10:29;;;;;;;3.00;2.00;;;21.40;57.20;;;;;;5087885;28;45376;-70
2022/10/18 02:12:56;;;;;;;2.20;1.67;;;21.40;57.20;;;;;;5088137;28;45249;-70
2022/10/18 02:15:25;;;;;;;3.50;2.10;;;21.40;57.30;;;;;;5088155;28;45581;-70
2022/10/18 02:17:52;;;;;;;3.95;1.75;;;21.40;57.30;;;;;;5087714;28;45308;-70
2022/10/18 02:20:20;;;;;;;3.75;1.80;;;21.40;57.30;;;;;;5087826;28;45319;-70
2022/10/18 02:22:47;;;;;;;2.13;1.58;;;21.40;57.30;;;;;;5087975;28;45296;-70
2022/10/18 02:25:20;;;;;;;2.15;1.90;;;21.40;57.30;;;;;;5087924;28;45237;-71
2022/10/18 02:27:47;;;;;;;4.90;1.88;;;21.40;57.30;;;;;;5087714;28;46371;-71
2022/10/18 02:30:14;;;;;;;1.98;1.70;;;21.40;57.90;;;;;;5087670;28;45233;-71
2022/10/18 02:32:41;;;;;;;2.30;1.63;;;21.30;57.30;;;;;;5087872;28;45287;-71
2022/10/18 02:35:10;;;;;;;3.22;1.80;;;21.30;57.30;;;;;;5087975;28;45451;-71
2022/10/18 02:37:39;;;;;;;2.65;1.70;;;21.30;57.30;;;;;;5087345;28;46928;-71
2022/10/18 02:40:07;;;;;;;2.30;1.60;;;21.30;57.30;;;;;;5086419;28;45190;-71
2022/10/18 02:42:35;;;;;;;1.92;1.50;;;21.30;57.40;;;;;;5086906;28;45275;-71
2022/10/18 02:45:03;;;;;;;1.55;1.45;;;21.30;57.90;;;;;;5087961;28;45198;-70
2022/10/18 02:47:30;;;;;;;2.15;1.60;;;21.30;57.40;;;;;;5087212;28;45408;-70
2022/10/18 02:49:57;;;;;;;2.70;1.70;;;21.30;57.30;;;;;;5087198;28;45201;-70
2022/10/18 02:52:23;;;;;;;2.08;1.85;;;21.30;57.40;;;;;;5087527;28;45356;-70
2022/10/18 02:54:52;;;;;;;1.80;1.60;;;21.30;57.40;;;;;;5087296;28;45329;-70
2022/10/18 02:57:18;;;;;;;1.58;1.45;;;21.30;57.50;;;;;;5087131;28;45231;-71
2022/10/18 02:59:45;;;;;;;1.80;1.38;;;21.30;57.40;;;;;;5087114;28;45306;-71
2022/10/18 03:02:12;;;;;;;2.45;1.58;;;21.30;57.40;;;;;;5087310;28;45420;-71
2022/10/18 03:04:39;;;;;;;2.25;1.55;;;21.30;57.40;;;;;;5084818;28;45349;-71
2022/10/18 03:07:06;;;;;;;1.65;1.50;;;21.30;57.50;;;;;;5087019;28;47568;-71
2022/10/18 03:09:33;;;;;;;1.70;1.58;;;21.30;57.50;;;;;;5087238;28;45218;-71
2022/10/18 03:12:01;;;;;;;1.88;1.65;;;21.30;57.50;;;;;;5087351;28;45170;-71
2022/10/18 03:14:28;;;;;;;1.63;1.52;;;21.20;57.50;;;;;;5087405;28;45356;-71
2022/10/18 03:16:55;;;;;;;1.80;1.52;;;21.20;57.50;;;;;;5086774;28;46389;-71
2022/10/18 03:19:21;;;;;;;4.38;1.70;;;21.20;57.40;;;;;;5086797;28;45332;-71
2022/10/18 03:21:48;;;;;;;1.83;1.60;;;21.20;58.10;;;;;;5086981;28;45248;-71
2022/10/18 03:24:15;;;;;;;1.70;1.50;;;21.20;57.50;;;;;;5086513;28;45403;-71
2022/10/18 03:26:42;;;;;;;2.90;1.60;;;21.20;57.50;;;;;;5086259;28;45222;-71
2022/10/18 03:29:10;;;;;;;1.95;1.58;;;21.20;58.10;;;;;;5086859;28;45346;-71
2022/10/18 03:31:37;;;;;;;1.70;1.60;;;21.20;57.50;;;;;;5087327;28;45297;-71
2022/10/18 03:34:04;;;;;;;2.08;1.60;;;21.20;57.50;;;;;;5084407;28;45178;-72
2022/10/18 03:36:32;;;;;;;2.08;1.70;;;21.20;57.50;;;;;;5086489;28;46502;-71
2022/10/18 03:39:00;;;;;;;2.15;1.50;;;21.20;57.50;;;;;;5086415;28;45307;-71
2022/10/18 03:41:26;;;;;;;1.75;1.55;;;21.20;57.50;;;;;;5086621;28;45269;-71
2022/10/18 03:43:53;;;;;;;1.60;1.50;;;21.10;57.60;;;;;;5086563;28;45215;-71
2022/10/18 03:46:21;;;;;;;2.45;1.60;;;21.10;58.10;;;;;;5086339;28;46735;-71
2022/10/18 03:48:48;;;;;;;1.55;1.45;;;21.10;58.10;;;;;;5086461;28;45309;-71
2022/10/18 03:51:15;;;;;;;2.17;1.55;;;21.10;57.60;;;;;;5085744;27;45287;-71
2022/10/18 03:53:42;;;;;;;1.85;1.70;;;21.10;57.60;;;;;;5086888;28;45377;-71
2022/10/18 03:56:09;;;;;;;1.83;1.60;;;21.10;57.60;;;;;;5086243;28;45474;-71
2022/10/18 03:58:36;;;;;;;1.50;1.40;;;21.10;57.60;;;;;;5086291;28;45179;-71
2022/10/18 04:01:03;;;;;;;2.28;1.60;;;21.10;57.70;;;;;;5086499;28;45197;-71
2022/10/18 04:03:31;;;;;;;1.58;1.48;;;21.10;57.70;;;;;;5086837;28;45291;-71
2022/10/18 04:05:59;;;;;;;1.40;1.30;;;21.10;58.30;;;;;;5086300;28;46568;-71
2022/10/18 04:08:26;;;;;;;2.20;1.75;;;21.00;57.70;;;;;;5086093;28;45292;-70
2022/10/18 04:10:53;;;;;;;1.85;1.30;;;21.00;57.70;;;;;;5085737;28;45185;-71
2022/10/18 04:13:20;;;;;;;1.73;1.40;;;21.00;57.70;;;;;;5086484;28;45233;-71
2022/10/18 04:15:46;;;;;;;1.55;1.45;;;21.00;57.80;;;;;;5086126;28;46408;-71
2022/10/18 04:18:13;;;;;;;1.42;1.33;;;21.00;57.70;;;;;;5086209;28;45178;-71
2022/10/18 04:20:42;;;;;;;1.58;1.48;;;21.00;57.70;;;;;;5085925;28;45335;-70
2022/10/18 04:23:08;;;;;;;1.60;1.50;;;21.00;57.80;;;;;;5086256;28;45464;-70
2022/10/18 04:25:35;;;;;;;1.90;1.60;;;21.00;57.80;;;;;;5085765;28;46371;-70
2022/10/18 04:28:03;;;;;;;2.55;1.67;;;20.90;57.70;;;;;;5085827;28;45331;-70
2022/10/18 04:30:30;;;;;;;1.70;1.60;;;20.90;58.50;;;;;;5085880;28;45211;-70
2022/10/18 04:32:57;;;;;;;1.50;1.40;;;20.90;57.80;;;;;;5085834;28;45417;-70
2022/10/18 04:35:24;;;;;;;2.08;1.60;;;20.90;57.90;;;;;;5085215;28;45370;-70
2022/10/18 04:37:53;;;;;;;2.53;1.60;;;20.90;57.90;;;;;;5085305;28;45324;-70
2022/10/18 04:40:20;;;;;;;1.55;1.45;;;20.90;58.00;;;;;;5085457;28;45218;-70
2022/10/18 04:42:46;;;;;;;3.38;1.58;;;20.90;57.90;;;;;;5085261;28;45500;-70
2022/10/18 04:45:13;;;;;;;2.53;1.50;;;20.80;58.00;;;;;;5085295;28;45425;-70
2022/10/18 04:47:40;;;;;;;1.55;1.45;;;20.80;58.00;;;;;;5085165;28;45371;-70
2022/10/18 04:50:08;;;;;;;1.60;1.50;;;20.80;58.00;;;;;;5085259;28;45240;-70
2022/10/18 04:52:35;;;;;;;2.85;1.42;;;20.80;58.10;;;;;;5085518;28;45412;-70
2022/10/18 04:55:03;;;;;;;1.40;1.30;;;20.80;58.10;;;;;;5084879;28;45218;-70
2022/10/18 04:57:30;;;;;;;1.88;1.65;;;20.80;58.70;;;;;;5085101;28;45418;-69
2022/10/18 04:59:56;;;;;;;1.35;1.25;;;20.80;58.20;;;;;;5085346;28;45383;-70
2022/10/18 05:02:23;;;;;;;1.45;1.35;;;20.70;58.70;;;;;;5086725;27;45313;-70
2022/10/18 05:04:51;;;;;;;1.67;1.58;;;20.70;58.20;;;;;;5088401;28;45238;-72
2022/10/18 05:07:17;;;;;;;1.90;1.65;;;20.70;58.20;;;;;;5088555;28;45199;-71
2022/10/18 05:09:44;;;;;;;1.50;1.40;;;20.70;58.30;;;;;;5088742;28;45388;-71
2022/10/18 05:12:12;;;;;;;1.90;1.20;;;20.70;58.30;;;;;;5088684;28;45364;-71
2022/10/18 05:14:39;;;;;;;3.10;1.65;;;20.70;58.30;;;;;;5088498;28;47298;-71
2022/10/18 05:17:06;;;;;;;2.03;1.50;;;20.70;58.30;;;;;;5088440;28;45194;-71
2022/10/18 05:19:33;;;;;;;1.60;1.40;;;20.70;58.30;;;;;;5088443;28;45242;-72
2022/10/18 05:22:00;;;;;;;2.08;1.40;;;20.70;58.90;;;;;;5088741;28;45322;-72
2022/10/18 05:24:27;;;;;;;1.50;1.40;;;20.70;58.30;;;;;;5088278;28;48620;-72
2022/10/18 05:26:54;;;;;;;2.28;1.48;;;20.70;58.20;;;;;;5088430;28;45273;-72
2022/10/18 05:29:22;;;;;;;1.90;1.42;;;20.70;58.40;;;;;;5088732;28;45236;-72
2022/10/18 05:31:49;;;;;;;1.60;1.50;;;20.70;58.40;;;;;;5088672;28;45186;-72
2022/10/18 05:34:16;;;;;;;1.50;1.40;;;20.70;58.40;;;;;;5088210;28;47312;-72
2022/10/18 05:36:43;;;;;;;2.47;1.40;;;20.70;58.40;;;;;;5085532;28;45429;-72
2022/10/18 05:39:09;;;;;;;2.55;1.30;;;20.70;58.40;;;;;;5088218;28;45329;-71
2022/10/18 05:41:36;;;;;;;1.45;1.33;;;20.70;58.40;;;;;;5088440;28;45116;-72
2022/10/18 05:44:03;;;;;;;1.45;1.35;;;20.70;58.30;;;;;;5087754;28;45283;-72
2022/10/18 05:46:32;;;;;;;1.27;1.20;;;20.70;58.40;;;;;;5087984;28;45307;-73
2022/10/18 05:48:58;;;;;;;1.60;1.50;;;20.70;58.40;;;;;;5088401;28;45347;-72
2022/10/18 05:51:25;;;;;;;1.65;1.55;;;20.70;58.40;;;;;;5088435;28;45380;-72
2022/10/18 05:53:53;;;;;;;2.55;1.65;;;20.70;58.40;;;;;;5087777;28;45933;-72
2022/10/18 05:56:20;;;;;;;1.60;1.50;;;20.70;58.40;;;;;;5088039;28;45284;-72
2022/10/18 05:58:49;;;;;;;1.67;1.58;;;20.70;58.40;;;;;;5088090;28;45299;-72
2022/10/18 06:01:16;;;;;;;1.50;1.25;;;20.70;58.40;;;;;;5088196;28;45458;-72
2022/10/18 06:03:45;;;;;;;1.50;1.40;;;20.70;59.00;;;;;;5087480;28;45550;-72
2022/10/18 06:06:12;;;;;;;1.63;1.38;;;20.60;58.40;;;;;;5087952;28;45314;-72
2022/10/18 06:08:39;;;;;;;1.40;1.30;;;20.70;58.40;;;;;;5088007;28;45343;-70
2022/10/18 06:11:07;;;;;;;2.33;1.40;;;20.70;58.40;;;;;;5087863;28;45413;-70
2022/10/18 06:13:34;;;;;;;1.42;1.33;;;20.60;58.30;;;;;;5086807;27;46416;-72
2022/10/18 06:16:00;;;;;;;1.52;1.42;;;20.60;58.30;;;;;;5087539;28;45306;-72
2022/10/18 06:18:28;;;;;;;1.63;1.50;;;20.60;58.30;;;;;;5087677;28;45323;-73
2022/10/18 06:21:00;;;;;;;1.67;1.52;;;20.60;58.40;;;;;;5087664;28;45387;-72
2022/10/18 06:23:27;;;;;;;1.58;1.30;;;20.60;58.40;;;;;;5087480;28;47181;-72
2022/10/18 06:25:53;;;;;;;1.75;1.63;;;20.60;58.40;;;;;;5087153;28;45278;-72
2022/10/18 06:28:21;;;;;;;1.65;1.40;;;20.60;58.30;;;;;;5087506;28;45255;-72
2022/10/18 06:30:47;;;;;;;1.60;1.40;;;20.60;58.30;;;;;;5087789;28;45177;-72
2022/10/18 06:33:14;;;;;;;1.50;1.40;;;20.60;58.30;;;;;;5087472;28;45254;-73
2022/10/18 06:35:41;;;;;;;1.65;1.48;;;20.60;58.30;;;;;;5087166;28;45309;-72
2022/10/18 06:38:09;;;;;;;1.50;1.40;;;20.70;58.40;;;;;;5087471;28;45290;-72
2022/10/18 06:40:36;;;;;;;1.80;1.35;;;20.60;58.40;;;;;;5087204;28;45453;-67
2022/10/18 06:43:05;;;;;;;24.02;20.75;;;20.70;58.50;;;;;;5086915;28;46309;-71
2022/10/18 06:45:32;;;;;;;12.32;8.68;;;20.70;58.60;;;;;;5087072;28;45211;-68
2022/10/18 06:47:59;;;;;;;7.35;5.72;;;20.80;58.50;;;;;;5086920;28;45316;-73
2022/10/18 06:50:26;;;;;;;7.78;5.80;;;20.90;58.50;;;;;;5086950;28;45269;-69
2022/10/18 06:52:53;;;;;;;9.23;6.10;;;20.90;58.40;;;;;;5086588;28;45249;-69
2022/10/18 06:55:21;;;;;;;15.27;7.05;;;21.00;58.30;;;;;;5086714;28;45286;-71
2022/10/18 06:57:48;;;;;;;5.97;5.30;;;21.00;58.30;;;;;;5086769;28;45384;-71
2022/10/18 07:00:15;;;;;;;10.88;8.45;;;21.10;58.80;;;;;;5087065;28;45279;-69
2022/10/18 07:02:42;;;;;;;17.67;15.32;;;21.10;58.00;;;;;;5086482;28;45295;-68
2022/10/18 07:05:09;;;;;;;41.42;36.95;;;21.20;58.20;;;;;;5087349;28;45286;-72
2022/10/18 07:07:36;;;;;;;11.05;7.88;;;21.20;58.10;;;;;;5086617;28;45240;-69
2022/10/18 07:10:04;;;;;;;22.13;19.20;;;21.30;58.00;;;;;;5086334;28;45404;-70
2022/10/18 07:12:32;;;;;;;16.58;14.95;;;21.40;57.90;;;;;;5086417;28;46422;-70
2022/10/18 07:14:59;;;;;;;11.57;9.02;;;21.40;57.80;;;;;;5086709;28;45201;-68
2022/10/18 07:17:26;;;;;;;9.35;5.85;;;21.50;57.60;;;;;;5086489;28;45347;-71
2022/10/18 07:19:53;;;;;;;41.35;34.60;;;21.50;57.50;;;;;;5086529;28;45299;-68
2022/10/18 07:22:20;;;;;;;9.18;6.18;;;21.60;57.60;;;;;;5086159;28;47299;-72
2022/10/18 07:24:47;;;;;;;19.92;17.83;;;21.70;57.50;;;;;;5086429;27;45272;-69
2022/10/18 07:27:14;;;;;;;14.85;9.48;;;21.70;57.40;;;;;;5086731;28;45217;-69
2022/10/18 07:29:42;;;;;;;15.27;13.75;;;21.80;57.40;;;;;;5087199;28;45346;-70
2022/10/18 07:32:09;;;;;;;10.90;7.10;;;21.80;57.90;;;;;;5086101;28;46724;-68
2022/10/18 07:34:36;;;;;;;26.10;23.05;;;21.90;58.00;;;;;;5085937;28;45279;-69
2022/10/18 07:37:03;;;;;;;29.80;26.13;;;22.00;57.40;;;;;;5086251;28;45451;-70
2022/10/18 07:39:30;;;;;;;38.15;32.20;;;22.00;57.00;;;;;;5086193;28;45541;-70
2022/10/18 07:41:57;;;;;;;20.13;8.20;;;22.20;57.00;;;;;;5086425;28;47430;-68
2022/10/18 07:44:24;;;;;;;27.00;20.95;;;22.20;56.80;;;;;;5086295;28;45358;-68
2022/10/18 07:46:53;;;;;;;10.85;7.82;;;22.30;56.90;;;;;;5086803;28;45245;-72
2022/10/18 07:49:20;;;;;;;10.77;5.85;;;22.30;56.50;;;;;;5087032;28;45259;-72
2022/10/18 07:51:47;;;;;;;14.13;6.03;;;22.30;56.30;;;;;;5086328;28;45507;-71
2022/10/18 07:54:14;;;;;;;10.18;4.95;;;22.20;56.20;;;;;;5085932;28;45442;-71
2022/10/18 07:56:41;;;;;;;10.23;4.50;;;22.20;56.30;;;;;;5086509;28;45303;-72
2022/10/18 07:59:09;;;;;;;6.00;4.40;;;22.20;56.40;;;;;;5086574;28;45321;-72
2022/10/18 08:01:36;;;;;;;11.25;4.68;;;22.10;56.40;;;;;;5086204;28;46834;-72
2022/10/18 08:04:04;;;;;;;12.85;5.32;;;22.10;56.50;;;;;;5086407;28;45352;-72
2022/10/18 08:06:31;;;;;;;9.57;5.00;;;22.10;56.70;;;;;;5086415;28;45204;-72
2022/10/18 08:08:58;;;;;;;9.63;4.45;;;22.10;57.30;;;;;;5086625;28;45258;-72
2022/10/18 08:11:25;;;;;;;9.10;3.45;;;22.10;56.70;;;;;;5086448;28;46482;-72
2022/10/18 08:13:52;;;;;;;6.57;3.85;;;22.00;56.70;;;;;;5086357;28;45262;-72
2022/10/18 08:16:20;;;;;;;6.60;3.72;;;22.00;56.80;;;;;;5086371;28;45370;-72
2022/10/18 08:18:47;;;;;;;6.70;3.28;;;22.00;56.90;;;;;;5086682;28;45272;-73
2022/10/18 08:21:15;;;;;;;10.48;4.40;;;22.00;56.90;;;;;;5086293;28;45406;-72
2022/10/18 08:23:42;;;;;;;7.60;3.67;;;22.00;56.90;;;;;;5086386;28;45299;-73
2022/10/18 08:26:10;;;;;;;8.32;4.00;;;22.00;57.00;;;;;;5086404;28;45437;-72
2022/10/18 08:28:37;;;;;;;9.73;4.57;;;21.90;57.10;;;;;;5086086;28;45542;-73
2022/10/18 08:31:04;;;;;;;9.43;4.93;;;22.00;57.20;;;;;;5086019;28;46346;-72
2022/10/18 08:33:31;;;;;;;9.18;4.72;;;22.00;57.30;;;;;;5086567;28;45244;-72
2022/10/18 08:35:58;;;;;;;12.30;4.50;;;21.90;57.20;;;;;;5086285;28;45308;-72
2022/10/18 08:38:29;;;;;;;4.38;3.72;;;21.90;57.30;;;;;;5089198;28;45297;-73
2022/10/18 08:40:56;;;;;;;5.60;3.90;;;21.90;57.30;;;;;;5089017;28;45437;-72
2022/10/18 08:43:26;;;;;;;6.60;4.28;;;21.90;57.30;;;;;;5089352;28;45296;-72
2022/10/18 08:45:53;;;;;;;4.38;3.80;;;21.90;57.30;;;;;;5089517;28;45196;-72
2022/10/18 08:48:32;;;;;;;6.50;3.83;;;21.90;57.30;;;;;;5089687;28;45186;-72
2022/10/18 08:50:59;;;;;;;9.20;4.28;;;21.90;57.40;;;;;;5089406;28;45356;-72
2022/10/18 08:53:37;;;;;;;5.07;3.67;;;21.90;57.30;;;;;;5089441;28;45240;-72
2022/10/18 08:56:09;;;;;;;6.78;3.45;;;21.90;57.40;;;;;;5086651;27;45608;-72
2022/10/18 08:58:36;;;;;;;5.32;3.83;;;21.90;57.40;;;;;;5089597;28;45240;-72
2022/10/18 09:01:09;;;;;;;5.53;3.45;;;21.90;57.50;;;;;;5089065;28;45547;-71
2022/10/18 09:04:05;;;;;;;6.00;3.25;;;21.90;57.50;;;;;;5088051;28;45193;-70
2022/10/18 09:06:34;;;;;;;10.05;3.45;;;21.90;57.80;;;;;;5089031;28;45146;-70
2022/10/18 09:09:14;;;;;;;11.40;3.55;;;21.90;57.70;;;;;;5089314;28;45257;-73
2022/10/18 09:11:47;;;;;;;10.32;3.60;;;22.00;58.10;;;;;;5089347;28;46617;-69
2022/10/18 09:14:33;;;;;;;7.07;3.50;;;22.00;58.00;;;;;;5088603;28;45331;-71
2022/10/18 09:17:03;;;;;;;10.27;3.70;;;22.00;58.20;;;;;;5088569;28;45385;-70
2022/10/18 09:19:41;;;;;;;10.43;3.97;;;22.00;57.80;;;;;;5089351;28;45232;-71
2022/10/18 09:22:10;;;;;;;14.10;3.70;;;22.10;57.90;;;;;;5088641;28;46318;-70
2022/10/18 09:24:39;;;;;;;9.73;4.57;;;22.20;58.00;;;;;;5089664;28;45218;-70
2022/10/18 09:27:16;;;;;;;11.48;4.53;;;22.20;58.00;;;;;;5088876;28;45317;-70
2022/10/18 09:29:51;;;;;;;12.45;4.70;;;22.30;57.70;;;;;;5088916;28;45529;-71
2022/10/18 09:32:25;;;;;;;10.50;3.80;;;22.30;57.20;;;;;;5087728;28;46404;-73
2022/10/18 09:34:53;;;;;;;6.90;3.55;;;22.40;57.30;;;;;;5085640;28;45317;-72
2022/10/18 09:37:20;;;;;;;11.63;3.90;;;22.40;57.60;;;;;;5089287;28;45319;-70
2022/10/18 09:39:49;;;;;;;19.40;5.15;;;22.40;57.40;;;;;;5088566;28;45377;-72
2022/10/18 09:42:17;;;;;;;13.18;5.88;;;22.50;57.50;;;;;;5088209;28;46407;-72
2022/10/18 09:44:45;;;;;;;13.35;5.93;;;22.50;57.00;;;;;;5087957;28;45291;-72
2022/10/18 09:47:14;;;;;;;9.82;6.55;;;22.60;57.40;;;;;;5088544;28;45226;-69
2022/10/18 09:49:43;;;;;;;11.65;7.40;;;22.60;57.20;;;;;;5086948;27;45194;-72
2022/10/18 09:52:17;;;;;;;11.65;8.15;;;22.70;57.20;;;;;;5087201;28;46799;-69
2022/10/18 09:54:44;;;;;;;10.32;6.72;;;22.70;57.20;;;;;;5087972;28;45291;-72
2022/10/18 09:57:15;;;;;;;13.38;6.90;;;22.70;57.00;;;;;;5088369;28;45221;-69
2022/10/18 09:59:42;;;;;;;18.58;11.52;;;22.90;57.00;;;;;;5088071;28;45610;-69
2022/10/18 10:02:12;;;;;;;14.63;7.55;;;22.90;56.80;;;;;;5086969;28;46381;-69
2022/10/18 10:04:39;;;;;;;8.68;6.72;;;22.90;56.70;;;;;;5087383;28;45190;-68
2022/10/18 10:07:07;;;;;;;11.75;7.05;;;22.90;56.50;;;;;;5087996;28;45197;-68
2022/10/18 10:09:37;;;;;;;13.73;6.50;;;23.00;56.40;;;;;;5087551;28;45403;-69
2022/10/18 10:12:04;;;;;;;21.65;6.63;;;23.00;56.20;;;;;;5087223;28;46520;-68
2022/10/18 10:14:32;;;;;;;13.27;5.90;;;23.10;56.20;;;;;;5087306;28;45231;-69
2022/10/18 10:17:01;;;;;;;22.10;5.78;;;23.10;56.10;;;;;;5086718;28;45415;-68
2022/10/18 10:19:30;;;;;;;10.88;3.92;;;23.20;56.20;;;;;;5087789;28;45523;-67
2022/10/18 10:22:03;;;;;;;7.15;3.63;;;23.20;56.50;;;;;;5087190;28;46533;-69
2022/10/18 10:24:35;;;;;;;8.52;2.83;;;23.30;56.60;;;;;;5087397;28;45181;-68
2022/10/18 10:27:03;;;;;;;4.85;2.85;;;23.40;55.90;;;;;;5087546;28;45290;-67
2022/10/18 10:29:57;;;;;;;3.47;2.90;;;23.60;55.90;;;;;;5087521;28;45206;-68
2022/10/18 10:32:29;;;;;;;4.10;2.35;;;23.80;55.60;;;;;;5086997;28;45734;-69
2022/10/18 10:34:56;;;;;;;2.80;2.42;;;23.90;55.10;;;;;;5087016;28;45465;-68
2022/10/18 10:37:30;;;;;;;3.28;2.15;;;24.00;54.20;;;;;;5084031;28;45301;-68
2022/10/18 10:40:17;;;;;;;3.83;2.10;;;24.10;54.30;;;;;;5087586;28;45401;-67
2022/10/18 10:43:15;;;;;;;5.63;2.35;;;24.20;54.10;;;;;;5086705;28;45526;-67
2022/10/18 10:45:55;;;;;;;5.40;2.38;;;24.20;54.40;;;;;;5086435;28;45284;-69
2022/10/18 10:48:21;;;;;;;4.88;2.30;;;24.30;55.20;;;;;;5087482;28;45311;-69
2022/10/18 10:50:51;;;;;;;3.65;2.70;;;24.50;54.40;;;;;;5084553;28;45252;-69
2022/10/18 10:53:29;;;;;;;4.72;2.15;;;24.50;53.70;;;;;;5086672;28;46680;-67
2022/10/18 10:55:56;;;;;;;5.50;2.70;;;24.60;54.40;;;;;;5086628;28;45343;-68
2022/10/18 10:58:23;;;;;;;4.65;2.17;;;24.60;53.60;;;;;;5087430;28;45206;-68
2022/10/18 11:00:51;;;;;;;4.90;2.60;;;24.60;53.60;;;;;;5087030;27;45351;-70
2022/10/18 11:03:19;;;;;;;9.05;2.67;;;24.70;53.80;;;;;;5097554;28;46785;-72
2022/10/18 11:05:47;;;;;;;5.90;2.28;;;24.80;53.40;;;;;;5092378;28;45427;-70
2022/10/18 11:08:16;;;;;;;6.72;2.47;;;24.90;53.30;;;;;;5088073;28;45195;-69
2022/10/18 11:10:50;;;;;;;9.30;2.53;;;25.00;52.80;;;;;;5086904;28;45578;-68
2022/10/18 11:13:23;;;;;;;18.55;3.05;;;24.90;53.50;;;;;;5083421;27;47282;-69
2022/10/18 11:15:52;;;;;;;9.95;2.08;;;25.00;52.90;;;;;;5084828;27;45413;-68
2022/10/18 11:18:21;;;;;;;2.70;1.98;;;25.00;52.80;;;;;;5086448;27;45244;-68
2022/10/18 11:20:50;;;;;;;3.80;2.60;;;25.00;52.50;;;;;;5086103;28;45402;-68
2022/10/18 11:23:18;;;;;;;4.22;2.17;;;25.00;52.00;;;;;;5085765;28;46429;-68
2022/10/18 11:26:00;;;;;;;4.35;2.28;;;24.90;52.00;;;;;;5086018;28;45302;-68
2022/10/18 11:28:33;;;;;;;6.32;2.22;;;24.90;53.00;;;;;;5085784;27;45389;-70
2022/10/18 11:31:10;;;;;;;8.20;2.65;;;25.00;52.80;;;;;;5085924;27;45491;-70
2022/10/18 11:33:43;;;;;;;3.55;2.50;;;25.00;53.50;;;;;;5085939;28;48612;-68
2022/10/18 11:36:12;;;;;;;4.53;2.25;;;25.20;53.50;;;;;;5086644;28;45236;-69
2022/10/18 11:38:42;;;;;;;6.25;2.17;;;25.30;53.20;;;;;;5087378;28;45307;-70
2022/10/18 11:41:24;;;;;;;4.60;2.00;;;25.40;52.70;;;;;;5086734;27;45681;-69
2022/10/18 11:43:53;;;;;;;3.15;1.85;;;25.50;52.40;;;;;;5089787;27;46530;-69
2022/10/18 11:46:32;;;;;;;4.72;2.30;;;25.60;53.00;;;;;;5086737;27;45308;-70
2022/10/18 11:49:36;;;;;;;3.50;2.42;;;25.70;52.10;;;;;;5086459;28;45404;-71
2022/10/18 11:52:07;;;;;;;3.30;2.28;;;25.70;52.00;;;;;;5071006;28;45359;-70
2022/10/18 11:54:43;;;;;;;2.38;2.15;;;25.90;51.80;;;;;;5086420;28;45339;-70
2022/10/18 11:57:17;;;;;;;4.00;2.10;;;25.90;51.50;;;;;;5086236;27;45273;-70
2022/10/18 11:59:47;;;;;;;2.88;2.38;;;26.00;51.50;;;;;;5086995;27;45255;-69
2022/10/18 12:02:25;;;;;;;3.90;2.15;;;26.10;51.30;;;;;;5085124;27;45391;-70
2022/10/18 12:04:54;;;;;;;5.65;2.50;;;26.20;51.10;;;;;;5084716;27;46445;-69
2022/10/18 12:07:21;;;;;;;4.93;2.50;;;26.20;51.40;;;;;;5080940;27;46218;-71
2022/10/18 12:09:48;;;;;;;8.55;2.53;;;26.30;51.70;;;;;;5081534;28;45429;-70
2022/10/18 12:12:18;;;;;;;4.70;2.28;;;26.40;50.90;;;;;;5085358;28;45427;-70
2022/10/18 12:14:47;;;;;;;4.65;2.30;;;26.40;51.00;;;;;;5085959;28;46742;-69
2022/10/18 12:17:19;;;;;;;7.13;2.45;;;26.50;50.70;;;;;;5086008;27;45595;-70
2022/10/18 12:19:46;;;;;;;3.80;2.40;;;26.50;50.20;;;;;;5083618;27;45383;-69
2022/10/18 12:22:14;;;;;;;4.25;2.10;;;26.60;50.00;;;;;;5088975;27;45441;-70
2022/10/18 12:24:41;;;;;;;4.05;2.10;;;26.60;49.80;;;;;;5091995;27;45287;-69
2022/10/18 12:27:09;;;;;;;2.75;2.20;;;26.70;49.90;;;;;;5085781;28;45477;-70
2022/10/18 12:29:39;;;;;;;5.80;2.13;;;26.70;49.60;;;;;;5086456;28;45196;-70
2022/10/18 12:32:08;;;;;;;3.15;2.45;;;26.80;49.90;;;;;;5085788;28;45328;-70
2022/10/18 12:34:39;;;;;;;5.53;2.20;;;26.80;49.60;;;;;;5089026;27;47353;-71
2022/10/18 12:37:39;;;;;;;4.40;2.22;;;26.90;49.40;;;;;;5083527;28;45319;-71
2022/10/18 12:40:10;;;;;;;5.30;2.35;;;26.90;49.30;;;;;;5086154;27;45366;-72
2022/10/18 12:42:41;;;;;;;6.32;2.22;;;27.00;49.20;;;;;;5095434;27;45469;-69
2022/10/18 12:45:31;;;;;;;6.20;2.60;;;27.00;48.50;;;;;;5082434;27;45440;-69
2022/10/18 12:48:00;;;;;;;5.32;2.20;;;27.00;49.40;;;;;;5090965;27;45296;-69
2022/10/18 12:50:33;;;;;;;7.07;2.22;;;27.10;48.90;;;;;;5089645;27;45339;-69
2022/10/18 12:53:05;;;;;;;5.32;2.30;;;27.10;48.80;;;;;;5087629;27;45308;-69
2022/10/18 12:55:33;;;;;;;3.50;2.17;;;27.10;48.60;;;;;;5084557;27;47322;-70